createdAt,value
2019-04-14T00:00:09.813Z,1008.20
2019-04-14T00:01:09.127Z,1008.23
2019-04-14T00:02:09.608Z,1008.16
2019-04-14T00:03:09.126Z,1008.17
2019-04-14T00:04:09.519Z,1008.16
2019-04-14T00:05:10.332Z,1008.17
2019-04-14T00:06:09.167Z,1008.18
2019-04-14T00:07:10.100Z,1008.16
2019-04-14T00:08:10.959Z,1008.20
2019-04-14T00:09:09.633Z,1008.18
2019-04-14T00:10:09.355Z,1008.17
2019-04-14T00:11:09.003Z,1008.16
2019-04-14T00:12:09.476Z,1008.19
2019-04-14T00:13:09.082Z,1008.16
2019-04-14T00:14:09.585Z,1008.11
2019-04-14T00:15:21.146Z,1008.14
2019-04-14T00:16:09.598Z,1008.13
2019-04-14T00:17:08.942Z,1008.13
2019-04-14T00:18:09.688Z,1008.12
2019-04-14T00:19:08.943Z,1008.08
2019-04-14T00:20:09.574Z,1008.12
2019-04-14T00:21:08.889Z,1008.12
2019-04-14T00:22:09.445Z,1008.12
2019-04-14T00:23:08.911Z,1008.16
2019-04-14T00:24:09.494Z,1008.15
2019-04-14T00:25:08.851Z,1008.19
2019-04-14T00:26:09.407Z,1008.15
2019-04-14T00:27:08.825Z,1008.16
2019-04-14T00:28:09.512Z,1008.16
2019-04-14T00:29:08.971Z,1008.16
2019-04-14T00:30:09.725Z,1008.14
2019-04-14T00:31:08.783Z,1008.14
2019-04-14T00:32:09.571Z,1008.15
2019-04-14T00:33:08.757Z,1008.12
2019-04-14T00:34:09.316Z,1008.13
2019-04-14T00:35:08.743Z,1008.18
2019-04-14T00:36:08.786Z,1008.15
2019-04-14T00:37:09.812Z,1008.13
2019-04-14T00:38:08.753Z,1008.13
2019-04-14T00:39:09.597Z,1008.10
2019-04-14T00:40:08.705Z,1008.09
2019-04-14T00:41:09.385Z,1008.11
2019-04-14T00:42:08.661Z,1008.12
2019-04-14T00:43:09.200Z,1008.09
2019-04-14T00:44:09.920Z,1008.09
2019-04-14T00:45:09.109Z,1008.09
2019-04-14T00:46:08.659Z,1008.12
2019-04-14T00:47:09.316Z,1008.11
2019-04-14T00:48:14.127Z,1008.04
2019-04-14T00:49:09.316Z,1008.09
2019-04-14T00:50:08.599Z,1008.04
2019-04-14T00:51:09.169Z,1008.08
2019-04-14T00:52:08.590Z,1008.02
2019-04-14T00:53:09.590Z,1008.00
2019-04-14T00:54:08.768Z,1008.01
2019-04-14T00:55:09.601Z,1007.99
2019-04-14T00:56:08.514Z,1007.98
2019-04-14T00:57:09.410Z,1007.99
2019-04-14T00:58:08.496Z,1008.00
2019-04-14T00:59:09.279Z,1007.97
2019-04-14T01:00:08.488Z,1007.94
2019-04-14T01:01:09.067Z,1007.98
2019-04-14T01:02:08.469Z,1008.03
2019-04-14T01:03:09.132Z,1008.01
2019-04-14T01:04:08.457Z,1008.01
2019-04-14T01:05:08.970Z,1007.95
2019-04-14T01:06:09.643Z,1007.94
2019-04-14T01:07:08.722Z,1008.03
2019-04-14T01:08:09.539Z,1007.99
2019-04-14T01:09:08.602Z,1008.00
2019-04-14T01:10:08.371Z,1007.96
2019-04-14T01:11:09.469Z,1007.99
2019-04-14T01:12:08.341Z,1008.00
2019-04-14T01:13:11.016Z,1007.97
2019-04-14T01:14:08.315Z,1007.98
2019-04-14T01:15:09.364Z,1007.99
2019-04-14T01:16:13.893Z,1007.93
2019-04-14T01:17:09.056Z,1007.93
2019-04-14T01:18:08.275Z,1007.95
2019-04-14T01:19:09.026Z,1007.91
2019-04-14T01:20:08.262Z,1007.94
2019-04-14T01:21:08.940Z,1007.88
2019-04-14T01:22:09.476Z,1007.89
2019-04-14T01:23:08.501Z,1007.90
2019-04-14T01:24:08.213Z,1007.90
2019-04-14T01:25:08.609Z,1007.90
2019-04-14T01:26:09.240Z,1007.87
2019-04-14T01:27:08.181Z,1007.90
2019-04-14T01:28:08.977Z,1007.92
2019-04-14T01:29:08.186Z,1007.90
2019-04-14T01:30:08.833Z,1007.85
2019-04-14T01:31:08.149Z,1007.88
2019-04-14T01:32:08.823Z,1007.84
2019-04-14T01:33:08.114Z,1007.81
2019-04-14T01:34:08.442Z,1007.85
2019-04-14T01:35:08.139Z,1007.87
2019-04-14T01:36:08.156Z,1007.86
2019-04-14T01:37:09.309Z,1007.90
2019-04-14T01:38:08.062Z,1007.89
2019-04-14T01:39:08.975Z,1007.84
2019-04-14T01:40:08.046Z,1007.86
2019-04-14T01:41:08.542Z,1007.87
2019-04-14T01:42:08.013Z,1007.87
2019-04-14T01:43:08.180Z,1007.86
2019-04-14T01:44:09.083Z,1007.81
2019-04-14T01:45:08.050Z,1007.88
2019-04-14T01:46:16.053Z,1007.89
2019-04-14T01:47:07.982Z,1007.84
2019-04-14T01:48:08.434Z,1007.90
2019-04-14T01:49:07.942Z,1007.87
2019-04-14T01:50:08.381Z,1007.90
2019-04-14T01:51:09.158Z,1007.90
2019-04-14T01:52:08.166Z,1007.92
2019-04-14T01:53:07.921Z,1007.85
2019-04-14T01:54:08.471Z,1007.88
2019-04-14T01:55:09.032Z,1007.89
2019-04-14T01:56:08.043Z,1007.86
2019-04-14T01:57:08.880Z,1007.87
2019-04-14T01:58:07.979Z,1007.89
2019-04-14T01:59:08.697Z,1007.89
2019-04-14T02:00:07.829Z,1007.90
2019-04-14T02:01:08.424Z,1007.93
2019-04-14T02:02:07.810Z,1007.92
2019-04-14T02:03:08.490Z,1007.90
2019-04-14T02:04:07.784Z,1007.88
2019-04-14T02:05:08.203Z,1007.86
2019-04-14T02:06:07.758Z,1007.92
2019-04-14T02:07:08.101Z,1007.88
2019-04-14T02:08:08.997Z,1007.90
2019-04-14T02:09:07.763Z,1007.84
2019-04-14T02:10:08.597Z,1007.82
2019-04-14T02:11:07.708Z,1007.85
2019-04-14T02:12:08.458Z,1007.81
2019-04-14T02:13:11.473Z,1007.81
2019-04-14T02:14:08.295Z,1007.86
2019-04-14T02:15:07.664Z,1007.81
2019-04-14T02:16:21.000Z,1007.88
2019-04-14T02:17:08.172Z,1007.84
2019-04-14T02:18:07.863Z,1007.82
2019-04-14T02:19:08.782Z,1007.87
2019-04-14T02:20:07.851Z,1007.79
2019-04-14T02:21:08.527Z,1007.84
2019-04-14T02:22:07.600Z,1007.84
2019-04-14T02:23:08.288Z,1007.85
2019-04-14T02:24:07.567Z,1007.91
2019-04-14T02:25:07.747Z,1007.90
2019-04-14T02:26:08.983Z,1007.86
2019-04-14T02:27:07.756Z,1007.86
2019-04-14T02:28:07.530Z,1007.89
2019-04-14T02:29:07.927Z,1007.88
2019-04-14T02:30:10.319Z,1007.87
2019-04-14T02:31:25.163Z,1007.87
2019-04-14T02:32:33.076Z,1007.89
2019-04-14T02:34:41.600Z,1007.90
2019-04-14T02:35:37.213Z,1007.89
2019-04-14T02:37:34.699Z,1007.95
2019-04-14T02:38:41.413Z,1007.98
2019-04-14T02:40:39.126Z,1007.91
2019-04-14T02:41:41.460Z,1007.93
2019-04-14T02:42:46.380Z,1007.93
2019-04-14T02:43:37.652Z,1007.96
2019-04-14T02:44:38.425Z,1007.97
2019-04-14T02:46:38.260Z,1007.94
2019-04-14T02:48:44.238Z,1007.97
2019-04-14T02:50:32.481Z,1008.00
2019-04-14T02:53:51.756Z,1007.97
2019-04-14T02:54:44.963Z,1008.00
2019-04-14T02:55:31.887Z,1008.00
2019-04-14T02:57:32.256Z,1008.00
2019-04-14T02:58:38.674Z,1007.95
2019-04-14T02:59:34.152Z,1007.95
2019-04-14T03:00:47.859Z,1007.93
2019-04-14T03:02:00.638Z,1007.96
2019-04-14T03:03:35.540Z,1007.93
2019-04-14T03:04:33.535Z,1007.92
2019-04-14T03:05:34.242Z,1007.95
2019-04-14T03:06:52.182Z,1007.99
2019-04-14T03:08:31.343Z,1007.97
2019-04-14T03:10:34.191Z,1007.97
2019-04-14T03:11:34.392Z,1007.97
2019-04-14T03:12:31.710Z,1007.98
2019-04-14T03:13:35.061Z,1007.95
2019-04-14T03:16:40.057Z,1007.96
2019-04-14T03:18:46.579Z,1007.97
2019-04-14T03:19:38.786Z,1007.97
2019-04-14T03:23:34.324Z,1007.95
2019-04-14T03:24:31.598Z,1007.91
2019-04-14T03:25:26.492Z,1007.89
2019-04-14T03:26:35.236Z,1007.95
2019-04-14T03:29:43.777Z,1007.93
2019-04-14T03:32:58.094Z,1007.90
2019-04-14T03:37:21.957Z,1007.90
2019-04-14T03:38:40.772Z,1007.98
2019-04-14T03:39:45.916Z,1007.99
2019-04-14T03:40:35.666Z,1007.99
2019-04-14T03:41:29.141Z,1008.02
2019-04-14T03:42:35.286Z,1008.00
2019-04-14T03:43:30.998Z,1008.00
2019-04-14T03:44:34.653Z,1008.04
2019-04-14T03:47:34.452Z,1008.03
2019-04-14T03:49:45.089Z,1008.06
2019-04-14T03:50:32.344Z,1008.04
2019-04-14T03:51:40.508Z,1008.03
2019-04-14T03:52:46.006Z,1008.05
2019-04-14T03:54:25.851Z,1008.05
2019-04-14T03:55:20.316Z,1008.04
2019-04-14T03:56:09.203Z,1007.99
2019-04-14T03:57:06.593Z,1008.03
2019-04-14T03:58:08.235Z,1008.05
2019-04-14T03:59:06.538Z,1008.06
2019-04-14T04:00:07.477Z,1008.05
2019-04-14T04:01:06.524Z,1008.06
2019-04-14T04:02:07.465Z,1008.10
2019-04-14T04:03:06.498Z,1008.09
2019-04-14T04:04:07.516Z,1008.13
2019-04-14T04:05:06.541Z,1008.11
2019-04-14T04:06:07.557Z,1008.09
2019-04-14T04:07:06.450Z,1008.09
2019-04-14T04:08:09.388Z,1008.07
2019-04-14T04:09:06.426Z,1008.09
2019-04-14T04:10:07.230Z,1008.11
2019-04-14T04:11:06.410Z,1008.12
2019-04-14T04:12:07.448Z,1008.11
2019-04-14T04:13:06.392Z,1008.12
2019-04-14T04:14:07.404Z,1008.14
2019-04-14T04:15:06.364Z,1008.12
2019-04-14T04:16:07.159Z,1008.09
2019-04-14T04:17:06.352Z,1008.09
2019-04-14T04:18:07.022Z,1008.11
2019-04-14T04:19:10.555Z,1008.12
2019-04-14T04:20:06.749Z,1008.09
2019-04-14T04:21:07.383Z,1008.11
2019-04-14T04:22:06.408Z,1008.12
2019-04-14T04:23:07.375Z,1008.10
2019-04-14T04:24:06.475Z,1008.07
2019-04-14T04:25:07.320Z,1008.09
2019-04-14T04:26:06.282Z,1008.07
2019-04-14T04:27:06.852Z,1008.07
2019-04-14T04:28:06.223Z,1008.08
2019-04-14T04:29:06.990Z,1008.06
2019-04-14T04:30:06.198Z,1008.03
2019-04-14T04:31:06.731Z,1008.10
2019-04-14T04:32:06.198Z,1008.06
2019-04-14T04:33:06.579Z,1008.07
2019-04-14T04:34:06.160Z,1008.10
2019-04-14T04:35:06.536Z,1008.09
2019-04-14T04:36:07.345Z,1008.09
2019-04-14T04:37:06.181Z,1008.08
2019-04-14T04:38:07.252Z,1008.11
2019-04-14T04:39:06.168Z,1008.10
2019-04-14T04:40:07.138Z,1008.10
2019-04-14T04:41:06.077Z,1008.12
2019-04-14T04:42:07.009Z,1008.15
2019-04-14T04:43:06.095Z,1008.11
2019-04-14T04:44:07.128Z,1008.13
2019-04-14T04:45:06.777Z,1008.16
2019-04-14T04:46:06.903Z,1008.17
2019-04-14T04:47:06.013Z,1008.19
2019-04-14T04:48:06.697Z,1008.15
2019-04-14T04:49:11.719Z,1008.14
2019-04-14T04:50:08.776Z,1008.18
2019-04-14T04:51:07.121Z,1008.21
2019-04-14T04:52:06.249Z,1008.18
2019-04-14T04:53:06.965Z,1008.23
2019-04-14T04:54:06.048Z,1008.25
2019-04-14T04:55:06.765Z,1008.29
2019-04-14T04:56:05.922Z,1008.30
2019-04-14T04:57:06.814Z,1008.28
2019-04-14T04:58:05.888Z,1008.33
2019-04-14T04:59:05.881Z,1008.36
2019-04-14T05:00:07.016Z,1008.32
2019-04-14T05:01:05.922Z,1008.32
2019-04-14T05:02:06.957Z,1008.35
2019-04-14T05:03:05.844Z,1008.33
2019-04-14T05:04:06.882Z,1008.34
2019-04-14T05:05:05.830Z,1008.35
2019-04-14T05:06:09.240Z,1008.36
2019-04-14T05:07:05.841Z,1008.33
2019-04-14T05:08:08.706Z,1008.36
2019-04-14T05:09:05.775Z,1008.39
2019-04-14T05:10:06.645Z,1008.38
2019-04-14T05:11:08.268Z,1008.38
2019-04-14T05:12:06.679Z,1008.38
2019-04-14T05:13:07.299Z,1008.40
2019-04-14T05:14:06.513Z,1008.38
2019-04-14T05:15:05.723Z,1008.42
2019-04-14T05:16:06.315Z,1008.43
2019-04-14T05:17:05.858Z,1008.37
2019-04-14T05:18:07.056Z,1008.40
2019-04-14T05:19:17.225Z,1008.38
2019-04-14T05:20:05.656Z,1008.42
2019-04-14T05:21:06.046Z,1008.41
2019-04-14T05:22:05.640Z,1008.40
2019-04-14T05:23:05.953Z,1008.45
2019-04-14T05:24:07.042Z,1008.43
2019-04-14T05:25:05.794Z,1008.39
2019-04-14T05:26:05.598Z,1008.44
2019-04-14T05:27:05.769Z,1008.41
2019-04-14T05:28:06.848Z,1008.46
2019-04-14T05:29:05.720Z,1008.43
2019-04-14T05:30:06.776Z,1008.43
2019-04-14T05:31:05.553Z,1008.45
2019-04-14T05:32:06.615Z,1008.41
2019-04-14T05:33:05.515Z,1008.42
2019-04-14T05:34:06.493Z,1008.43
2019-04-14T05:35:05.511Z,1008.42
2019-04-14T05:36:06.325Z,1008.43
2019-04-14T05:37:07.198Z,1008.44
2019-04-14T05:39:04.663Z,1008.43
2019-04-14T05:40:05.876Z,1008.45
2019-04-14T05:41:05.480Z,1008.44
2019-04-14T05:42:12.078Z,1008.43
2019-04-14T05:43:06.642Z,1008.45
2019-04-14T05:44:06.398Z,1008.46
2019-04-14T05:45:08.741Z,1008.51
2019-04-14T05:46:05.585Z,1008.44
2019-04-14T05:47:06.522Z,1008.49
2019-04-14T05:48:05.431Z,1008.47
2019-04-14T05:49:06.451Z,1008.45
2019-04-14T05:50:05.329Z,1008.46
2019-04-14T05:51:06.422Z,1008.48
2019-04-14T05:52:05.577Z,1008.40
2019-04-14T05:53:06.430Z,1008.44
2019-04-14T05:54:05.630Z,1008.40
2019-04-14T05:55:06.542Z,1008.45
2019-04-14T05:56:05.792Z,1008.44
2019-04-14T05:57:06.517Z,1008.44
2019-04-14T05:58:05.739Z,1008.45
2019-04-14T05:59:06.627Z,1008.42
2019-04-14T06:00:05.998Z,1008.40
2019-04-14T06:01:05.212Z,1008.41
2019-04-14T06:02:05.218Z,1008.40
2019-04-14T06:04:07.029Z,1008.41
2019-04-14T06:05:06.462Z,1008.43
2019-04-14T06:06:05.159Z,1008.45
2019-04-14T06:07:05.151Z,1008.43
2019-04-14T06:08:05.133Z,1008.49
2019-04-14T06:09:05.143Z,1008.47
2019-04-14T06:10:05.113Z,1008.46
2019-04-14T06:11:05.107Z,1008.51
2019-04-14T06:12:05.091Z,1008.53
2019-04-14T06:13:05.747Z,1008.53
2019-04-14T06:14:05.077Z,1008.54
2019-04-14T06:15:05.061Z,1008.54
2019-04-14T06:16:05.073Z,1008.51
2019-04-14T06:17:05.745Z,1008.47
2019-04-14T06:18:05.027Z,1008.52
2019-04-14T06:19:05.021Z,1008.54
2019-04-14T06:20:05.009Z,1008.48
2019-04-14T06:21:05.027Z,1008.56
2019-04-14T06:22:04.987Z,1008.51
2019-04-14T06:23:04.981Z,1008.53
2019-04-14T06:24:04.985Z,1008.51
2019-04-14T06:25:05.746Z,1008.50
2019-04-14T06:26:04.940Z,1008.53
2019-04-14T06:27:04.938Z,1008.52
2019-04-14T06:28:04.921Z,1008.60
2019-04-14T06:29:04.900Z,1008.53
2019-04-14T06:30:04.926Z,1008.58
2019-04-14T06:31:04.886Z,1008.55
2019-04-14T06:32:04.880Z,1008.54
2019-04-14T06:33:04.873Z,1008.55
2019-04-14T06:34:04.919Z,1008.59
2019-04-14T06:35:04.846Z,1008.58
2019-04-14T06:36:04.839Z,1008.61
2019-04-14T06:37:04.821Z,1008.60
2019-04-14T06:38:05.921Z,1008.61
2019-04-14T06:39:04.801Z,1008.62
2019-04-14T06:40:04.806Z,1008.61
2019-04-14T06:41:04.778Z,1008.61
2019-04-14T06:42:04.809Z,1008.67
2019-04-14T06:43:04.751Z,1008.68
2019-04-14T06:44:04.743Z,1008.67
2019-04-14T06:45:04.760Z,1008.68
2019-04-14T06:46:04.734Z,1008.68
2019-04-14T06:47:04.711Z,1008.67
2019-04-14T06:49:03.711Z,1008.69
2019-04-14T06:50:04.677Z,1008.69
2019-04-14T06:51:04.709Z,1008.67
2019-04-14T06:52:04.657Z,1008.67
2019-04-14T06:53:04.645Z,1008.71
2019-04-14T06:54:04.637Z,1008.70
2019-04-14T06:55:05.241Z,1008.63
2019-04-14T06:56:04.618Z,1008.69
2019-04-14T06:57:04.638Z,1008.69
2019-04-14T06:58:07.236Z,1008.65
2019-04-14T06:59:04.582Z,1008.71
2019-04-14T07:00:04.575Z,1008.66
2019-04-14T07:01:07.241Z,1008.69
2019-04-14T07:02:04.541Z,1008.74
2019-04-14T07:03:05.287Z,1008.73
2019-04-14T07:04:04.531Z,1008.74
2019-04-14T07:05:07.233Z,1008.74
2019-04-14T07:06:04.503Z,1008.72
2019-04-14T07:07:04.495Z,1008.78
2019-04-14T07:08:04.523Z,1008.76
2019-04-14T07:09:04.526Z,1008.74
2019-04-14T07:10:04.494Z,1008.74
2019-04-14T07:11:04.447Z,1008.73
2019-04-14T07:12:04.531Z,1008.73
2019-04-14T07:13:04.427Z,1008.74
2019-04-14T07:14:04.423Z,1008.76
2019-04-14T07:15:04.419Z,1008.73
2019-04-14T07:16:04.415Z,1008.73
2019-04-14T07:17:04.397Z,1008.73
2019-04-14T07:18:04.380Z,1008.75
2019-04-14T07:19:04.365Z,1008.74
2019-04-14T07:20:04.355Z,1008.78
2019-04-14T07:21:04.341Z,1008.73
2019-04-14T07:22:04.349Z,1008.75
2019-04-14T07:23:04.321Z,1008.73
2019-04-14T07:25:03.302Z,1008.72
2019-04-14T07:27:03.301Z,1008.75
2019-04-14T07:28:04.265Z,1008.75
2019-04-14T07:29:04.256Z,1008.77
2019-04-14T07:30:04.239Z,1008.79
2019-04-14T07:31:04.238Z,1008.76
2019-04-14T07:32:04.219Z,1008.76
2019-04-14T07:33:04.727Z,1008.79
2019-04-14T07:34:04.201Z,1008.75
2019-04-14T07:35:04.188Z,1008.75
2019-04-14T07:36:04.183Z,1008.79
2019-04-14T07:37:04.159Z,1008.76
2019-04-14T07:38:04.155Z,1008.77
2019-04-14T07:39:04.177Z,1008.79
2019-04-14T07:40:04.135Z,1008.76
2019-04-14T07:41:04.123Z,1008.81
2019-04-14T07:42:04.117Z,1008.80
2019-04-14T07:43:04.099Z,1008.84
2019-04-14T07:44:04.097Z,1008.87
2019-04-14T07:45:04.126Z,1008.81
2019-04-14T07:46:04.069Z,1008.85
2019-04-14T07:47:04.053Z,1008.84
2019-04-14T07:48:04.052Z,1008.85
2019-04-14T07:49:04.033Z,1008.88
2019-04-14T07:50:14.052Z,1008.86
2019-04-14T07:51:04.031Z,1008.82
2019-04-14T07:52:04.006Z,1008.86
2019-04-14T07:53:03.990Z,1008.82
2019-04-14T07:54:03.978Z,1008.82
2019-04-14T07:55:03.972Z,1008.78
2019-04-14T07:56:06.720Z,1008.83
2019-04-14T07:57:03.953Z,1008.81
2019-04-14T07:58:03.959Z,1008.87
2019-04-14T07:59:03.925Z,1008.83
2019-04-14T08:00:04.753Z,1008.83
2019-04-14T08:01:03.912Z,1008.84
2019-04-14T08:02:03.903Z,1008.83
2019-04-14T08:03:03.881Z,1008.83
2019-04-14T08:04:03.901Z,1008.88
2019-04-14T08:05:03.867Z,1008.87
2019-04-14T08:06:03.889Z,1008.89
2019-04-14T08:07:03.843Z,1008.86
2019-04-14T08:08:03.862Z,1008.88
2019-04-14T08:09:03.894Z,1008.89
2019-04-14T08:10:03.825Z,1008.88
2019-04-14T08:11:03.794Z,1008.91
2019-04-14T08:12:03.795Z,1008.94
2019-04-14T08:13:03.810Z,1008.92
2019-04-14T08:14:03.769Z,1008.94
2019-04-14T08:16:02.748Z,1008.98
2019-04-14T08:17:03.727Z,1008.97
2019-04-14T08:18:03.728Z,1008.98
2019-04-14T08:19:03.743Z,1008.98
2019-04-14T08:20:03.695Z,1008.99
2019-04-14T08:21:03.691Z,1009.02
2019-04-14T08:22:03.678Z,1008.98
2019-04-14T08:23:03.669Z,1009.00
2019-04-14T08:24:03.657Z,1008.98
2019-04-14T08:25:03.677Z,1009.00
2019-04-14T08:26:03.633Z,1009.01
2019-04-14T08:27:03.621Z,1008.99
2019-04-14T08:28:03.612Z,1009.04
2019-04-14T08:29:03.606Z,1009.00
2019-04-14T08:30:03.589Z,1008.97
2019-04-14T08:31:03.623Z,1009.05
2019-04-14T08:32:03.573Z,1009.06
2019-04-14T08:33:03.563Z,1009.08
2019-04-14T08:34:03.551Z,1009.04
2019-04-14T08:35:03.543Z,1009.08
2019-04-14T08:36:03.529Z,1009.05
2019-04-14T08:37:03.534Z,1009.07
2019-04-14T08:38:03.499Z,1009.05
2019-04-14T08:39:03.500Z,1009.08
2019-04-14T08:40:03.491Z,1009.04
2019-04-14T08:41:03.482Z,1009.06
2019-04-14T08:42:03.460Z,1009.09
2019-04-14T08:43:03.468Z,1009.07
2019-04-14T08:44:03.443Z,1009.09
2019-04-14T08:45:03.427Z,1009.06
2019-04-14T08:46:03.412Z,1009.11
2019-04-14T08:47:03.415Z,1009.12
2019-04-14T08:48:03.404Z,1009.10
2019-04-14T08:49:03.426Z,1009.07
2019-04-14T08:50:03.389Z,1009.08
2019-04-14T08:51:03.371Z,1009.09
2019-04-14T08:52:03.364Z,1009.07
2019-04-14T08:53:03.340Z,1009.07
2019-04-14T08:54:03.376Z,1009.08
2019-04-14T08:55:03.320Z,1009.09
2019-04-14T08:56:03.307Z,1009.03
2019-04-14T08:57:03.301Z,1009.00
2019-04-14T08:58:04.299Z,1009.02
2019-04-14T08:59:03.279Z,1009.00
2019-04-14T09:00:03.309Z,1008.97
2019-04-14T09:01:03.258Z,1008.96
2019-04-14T09:02:03.248Z,1008.93
2019-04-14T09:03:03.233Z,1008.98
2019-04-14T09:04:03.232Z,1008.95
2019-04-14T09:05:03.219Z,1008.97
2019-04-14T09:06:03.249Z,1009.01
2019-04-14T09:07:03.189Z,1008.97
2019-04-14T09:08:03.181Z,1008.95
2019-04-14T09:09:03.170Z,1009.01
2019-04-14T09:10:03.154Z,1008.99
2019-04-14T09:11:03.146Z,1008.96
2019-04-14T09:12:14.802Z,1008.97
2019-04-14T09:13:03.122Z,1009.03
2019-04-14T09:14:03.142Z,1008.99
2019-04-14T09:15:03.103Z,1009.00
2019-04-14T09:16:03.094Z,1009.04
2019-04-14T09:17:03.078Z,1009.03
2019-04-14T09:18:03.072Z,1009.04
2019-04-14T09:19:07.835Z,1009.08
2019-04-14T09:20:03.057Z,1009.12
2019-04-14T09:21:03.036Z,1009.09
2019-04-14T09:22:03.736Z,1009.12
2019-04-14T09:23:03.019Z,1009.19
2019-04-14T09:24:03.002Z,1009.18
2019-04-14T09:26:02.688Z,1009.12
2019-04-14T09:27:02.974Z,1009.14
2019-04-14T09:28:02.969Z,1009.17
2019-04-14T09:29:02.952Z,1009.11
2019-04-14T09:30:02.943Z,1009.15
2019-04-14T09:31:02.933Z,1009.16
2019-04-14T09:32:02.919Z,1009.19
2019-04-14T09:33:03.687Z,1009.17
2019-04-14T09:34:02.911Z,1009.15
2019-04-14T09:35:02.891Z,1009.20
2019-04-14T09:36:02.874Z,1009.20
2019-04-14T09:37:02.908Z,1009.16
2019-04-14T09:38:02.856Z,1009.18
2019-04-14T09:39:02.843Z,1009.17
2019-04-14T09:40:02.845Z,1009.19
2019-04-14T09:41:02.821Z,1009.17
2019-04-14T09:42:02.808Z,1009.18
2019-04-14T09:43:02.845Z,1009.16
2019-04-14T09:44:02.789Z,1009.14
2019-04-14T09:45:02.775Z,1009.15
2019-04-14T09:46:02.766Z,1009.15
2019-04-14T09:47:02.767Z,1009.15
2019-04-14T09:48:02.747Z,1009.16
2019-04-14T09:49:02.762Z,1009.15
2019-04-14T09:50:02.723Z,1009.14
2019-04-14T09:51:05.128Z,1009.14
2019-04-14T09:52:02.698Z,1009.13
2019-04-14T09:53:02.689Z,1009.15
2019-04-14T09:54:02.678Z,1009.18
2019-04-14T09:55:02.706Z,1009.16
2019-04-14T09:56:02.692Z,1009.22
2019-04-14T09:57:02.646Z,1009.14
2019-04-14T09:58:02.639Z,1009.19
2019-04-14T09:59:02.632Z,1009.21
2019-04-14T10:00:02.613Z,1009.16
2019-04-14T10:01:02.606Z,1009.18
2019-04-14T10:02:02.629Z,1009.13
2019-04-14T10:03:02.584Z,1009.17
2019-04-14T10:04:02.572Z,1009.14
2019-04-14T10:05:02.564Z,1009.13
2019-04-14T10:06:02.554Z,1009.18
2019-04-14T10:07:02.544Z,1009.14
2019-04-14T10:08:02.562Z,1009.14
2019-04-14T10:09:02.527Z,1009.17
2019-04-14T10:10:02.509Z,1009.17
2019-04-14T10:11:02.494Z,1009.17
2019-04-14T10:12:02.504Z,1009.17
2019-04-14T10:13:02.553Z,1009.21
2019-04-14T10:14:02.466Z,1009.21
2019-04-14T10:15:02.458Z,1009.17
2019-04-14T10:16:02.441Z,1009.18
2019-04-14T10:17:02.477Z,1009.21
2019-04-14T10:18:03.171Z,1009.20
2019-04-14T10:19:02.410Z,1009.20
2019-04-14T10:20:02.426Z,1009.19
2019-04-14T10:21:02.392Z,1009.21
2019-04-14T10:22:02.372Z,1009.22
2019-04-14T10:23:02.395Z,1009.23
2019-04-14T10:24:03.172Z,1009.23
2019-04-14T10:25:02.348Z,1009.22
2019-04-14T10:26:02.336Z,1009.24
2019-04-14T10:27:02.330Z,1009.25
2019-04-14T10:28:02.342Z,1009.26
2019-04-14T10:29:02.309Z,1009.29
2019-04-14T10:30:02.299Z,1009.28
2019-04-14T10:31:02.285Z,1009.33
2019-04-14T10:32:02.269Z,1009.30
2019-04-14T10:33:02.255Z,1009.34
2019-04-14T10:34:02.276Z,1009.33
2019-04-14T10:35:02.335Z,1009.30
2019-04-14T10:36:02.234Z,1009.35
2019-04-14T10:37:02.218Z,1009.33
2019-04-14T10:38:02.209Z,1009.37
2019-04-14T10:39:02.198Z,1009.34
2019-04-14T10:40:02.220Z,1009.32
2019-04-14T10:41:02.169Z,1009.33
2019-04-14T10:42:02.162Z,1009.33
2019-04-14T10:43:02.156Z,1009.36
2019-04-14T10:44:02.138Z,1009.36
2019-04-14T10:45:02.131Z,1009.37
2019-04-14T10:46:02.151Z,1009.34
2019-04-14T10:47:02.110Z,1009.29
2019-04-14T10:48:02.106Z,1009.27
2019-04-14T10:49:02.090Z,1009.24
2019-04-14T10:50:02.082Z,1009.23
2019-04-14T10:51:02.067Z,1009.19
2019-04-14T10:52:02.110Z,1009.20
2019-04-14T10:53:02.049Z,1009.20
2019-04-14T10:54:02.041Z,1009.16
2019-04-14T10:55:02.036Z,1009.18
2019-04-14T10:56:04.669Z,1009.18
2019-04-14T10:57:01.994Z,1009.17
2019-04-14T10:58:01.988Z,1009.17
2019-04-14T10:59:02.113Z,1009.18
2019-04-14T11:00:01.972Z,1009.18
2019-04-14T11:01:01.958Z,1009.17
2019-04-14T11:02:04.662Z,1009.17
2019-04-14T11:03:01.934Z,1009.17
2019-04-14T11:04:01.924Z,1009.18
2019-04-14T11:05:01.932Z,1009.11
2019-04-14T11:06:01.904Z,1009.06
2019-04-14T11:07:01.891Z,1009.06
2019-04-14T11:08:02.658Z,1009.01
2019-04-14T11:09:01.874Z,1009.04
2019-04-14T11:10:01.885Z,1009.04
2019-04-14T11:11:01.848Z,1009.05
2019-04-14T11:12:01.842Z,1009.06
2019-04-14T11:13:01.826Z,1009.08
2019-04-14T11:14:01.819Z,1009.07
2019-04-14T11:15:01.807Z,1009.01
2019-04-14T11:16:01.832Z,1009.06
2019-04-14T11:17:01.792Z,1009.05
2019-04-14T11:18:01.778Z,1009.03
2019-04-14T11:19:01.764Z,1008.99
2019-04-14T11:20:01.750Z,1009.04
2019-04-14T11:21:01.755Z,1008.97
2019-04-14T11:22:01.784Z,1009.04
2019-04-14T11:23:03.447Z,1009.03
2019-04-14T11:24:02.654Z,1009.06
2019-04-14T11:25:01.704Z,1009.02
2019-04-14T11:26:02.653Z,1009.07
2019-04-14T11:27:01.671Z,1009.08
2019-04-14T11:28:01.673Z,1009.07
2019-04-14T11:29:01.657Z,1009.03
2019-04-14T11:30:04.155Z,1009.02
2019-04-14T11:31:01.635Z,1009.00
2019-04-14T11:33:00.612Z,1009.06
2019-04-14T11:34:01.607Z,1009.06
2019-04-14T11:35:01.591Z,1009.08
2019-04-14T11:36:01.587Z,1009.12
2019-04-14T11:37:01.571Z,1009.09
2019-04-14T11:38:01.584Z,1009.03
2019-04-14T11:39:01.543Z,1009.06
2019-04-14T11:40:01.533Z,1009.04
2019-04-14T11:41:01.521Z,1009.05
2019-04-14T11:42:01.508Z,1009.08
2019-04-14T11:43:01.522Z,1009.08
2019-04-14T11:44:01.524Z,1009.10
2019-04-14T11:45:01.527Z,1009.09
2019-04-14T11:46:03.636Z,1009.12
2019-04-14T11:47:01.483Z,1009.16
2019-04-14T11:48:02.146Z,1009.15
2019-04-14T11:49:01.431Z,1009.12
2019-04-14T11:50:01.427Z,1009.12
2019-04-14T11:51:01.417Z,1009.12
2019-04-14T11:52:03.188Z,1009.16
2019-04-14T11:53:04.144Z,1009.12
2019-04-14T11:54:01.390Z,1009.13
2019-04-14T11:55:01.388Z,1009.10
2019-04-14T11:56:02.156Z,1009.12
2019-04-14T11:57:01.362Z,1009.11
2019-04-14T11:58:01.335Z,1009.13
2019-04-14T11:59:01.339Z,1009.14
2019-04-14T12:00:01.332Z,1009.18
2019-04-14T12:01:01.309Z,1009.20
2019-04-14T12:02:01.314Z,1009.14
2019-04-14T12:03:01.287Z,1009.21
2019-04-14T12:04:01.276Z,1009.18
2019-04-14T12:05:01.262Z,1009.18
2019-04-14T12:06:01.265Z,1009.21
2019-04-14T12:07:01.275Z,1009.17
2019-04-14T12:08:01.246Z,1009.19
2019-04-14T12:09:01.231Z,1009.24
2019-04-14T12:10:01.215Z,1009.24
2019-04-14T12:11:01.201Z,1009.25
2019-04-14T12:12:04.135Z,1009.28
2019-04-14T12:13:01.186Z,1009.24
2019-04-14T12:14:01.170Z,1009.25
2019-04-14T12:15:01.165Z,1009.26
2019-04-14T12:17:00.130Z,1009.29
2019-04-14T12:18:01.164Z,1009.33
2019-04-14T12:19:01.113Z,1009.32
2019-04-14T12:20:01.102Z,1009.28
2019-04-14T12:21:01.093Z,1009.32
2019-04-14T12:22:08.299Z,1009.29
2019-04-14T12:23:01.069Z,1009.34
2019-04-14T12:24:01.075Z,1009.30
2019-04-14T12:25:01.065Z,1009.28
2019-04-14T12:26:05.496Z,1009.29
2019-04-14T12:28:00.637Z,1009.30
2019-04-14T12:29:02.995Z,1009.28
2019-04-14T12:30:01.113Z,1009.34
2019-04-14T12:31:01.959Z,1009.29
2019-04-14T12:32:01.779Z,1009.29
2019-04-14T12:33:00.965Z,1009.33
2019-04-14T12:34:00.948Z,1009.29
2019-04-14T12:35:00.933Z,1009.29
2019-04-14T12:36:00.925Z,1009.31
2019-04-14T12:37:00.945Z,1009.25
2019-04-14T12:38:00.901Z,1009.23
2019-04-14T12:39:00.899Z,1009.26
2019-04-14T12:40:04.819Z,1009.22
2019-04-14T12:41:02.541Z,1009.23
2019-04-14T12:42:59.871Z,1009.20
2019-04-14T12:44:00.841Z,1009.19
2019-04-14T12:45:00.823Z,1009.26
2019-04-14T12:46:00.811Z,1009.22